Friday, October 20, 2017, 9:22 PM EDT
Back to Local

KBJJ, Wooster Wayne County Airport

Location: Smithville, OH, United States Lat: 40.867
Local Time: 9:22 PM EDT ( 1:22 GMT) Lon: -81.883
Time Zone: US/Eastern Elev: 1138 ft

Show me the last for .
Show Decoded

2017-10-20 20:56 METAR KBJJ 210056Z AUTO 00000KT 10SM CLR 07/06 A3023 RMK AO2 SLP240 T00720056 =
2017-10-20 19:56 METAR KBJJ 202356Z AUTO 00000KT 10SM CLR 08/06 A3023 RMK AO2 RAE21 SLP244 P0000
                 60000 T00830061 10228 20083 53003 =
2017-10-20 18:56 METAR KBJJ 202256Z AUTO 18003KT 4SM -RA CLR 11/07 A3022 RMK AO2 RAB35 SLP239
                 P0000 T01060067 =
2017-10-20 18:48 METAR KBJJ 202248Z AUTO 00000KT 2 1/2SM -RA CLR 12/07 A3022 RMK AO2 RAB35 P0000
                 T01170067 =
2017-10-20 17:56 METAR KBJJ 202156Z AUTO 15005KT 10SM CLR 20/04 A3022 RMK AO2 SLP235 T02000039 =
2017-10-20 16:56 METAR KBJJ 202056Z AUTO 18003KT 10SM CLR 22/03 A3023 RMK AO2 SLP238 T02220033
                 56013 =
2017-10-20 15:56 METAR KBJJ 201956Z AUTO 16004KT 10SM CLR 22/04 A3024 RMK AO2 SLP241 T02220039 =
2017-10-20 14:56 METAR KBJJ 201856Z AUTO 22004KT 10SM CLR 22/03 A3026 RMK AO2 SLP247 T02220028 =
2017-10-20 13:56 METAR KBJJ 201756Z AUTO 18006KT 10SM CLR 21/03 A3027 RMK AO2 SLP253 T02110033
                 10217 20028 58018 =
2017-10-20 12:56 METAR KBJJ 201656Z AUTO VRB04KT 10SM CLR 20/04 A3030 RMK AO2 SLP261 T02000044 =
2017-10-20 11:56 METAR KBJJ 201556Z AUTO VRB05KT 10SM CLR 18/07 A3032 RMK AO2 SLP268 T01830067 =
2017-10-20 10:56 METAR KBJJ 201456Z AUTO 13005KT 10SM CLR 16/09 A3033 RMK AO2 SLP272 T01610089
                 51012 =
2017-10-20 09:56 METAR KBJJ 201356Z AUTO 00000KT 10SM CLR 12/08 A3033 RMK AO2 SLP272 T01220083 =
2017-10-20 08:56 METAR KBJJ 201256Z AUTO 00000KT 7SM CLR 08/07 A3031 RMK AO2 SLP269 T00780072 =
2017-10-20 07:56 METAR KBJJ 201156Z AUTO 00000KT 8SM CLR 03/03 A3029 RMK AO2 SLP264 T00280028
                 10061 20028 51016 =
2017-10-20 06:56 METAR KBJJ 201056Z AUTO 00000KT 9SM CLR 04/03 A3027 RMK AO2 SLP256 T00440033 =
2017-10-20 05:56 METAR KBJJ 200956Z AUTO 00000KT 10SM CLR 04/03 A3026 RMK AO2 SLP250 T00390033 =
2017-10-20 04:56 METAR KBJJ 200856Z AUTO 29003KT 9SM CLR 05/04 A3024 RMK AO2 SLP241 T00500044
                 53009 =
2017-10-20 03:56 METAR KBJJ 200756Z AUTO 00000KT 8SM CLR 05/04 A3023 RMK AO2 SLP237 T00500039 =
2017-10-20 02:56 METAR KBJJ 200656Z AUTO 34004KT 10SM CLR 06/06 A3022 RMK AO2 SLP235 T00610056 =
2017-10-20 01:56 METAR KBJJ 200556Z AUTO 00000KT 9SM CLR 05/04 A3022 RMK AO2 SLP233 T00500044
                 10117 20050 51008 =
2017-10-20 00:56 METAR KBJJ 200456Z AUTO 00000KT 10SM CLR 06/05 A3021 RMK AO2 SLP232 T00610050
                 402280039 =
2017-10-19 23:56 METAR KBJJ 200356Z AUTO 00000KT 10SM CLR 07/06 A3021 RMK AO2 SLP229 T00670061 =
2017-10-19 22:56 METAR KBJJ 200256Z AUTO 29003KT 10SM CLR 08/07 A3019 RMK AO2 SLP226 T00780072
                 53007 =
2017-10-19 21:56 METAR KBJJ 200156Z AUTO 34005KT 9SM CLR 09/08 A3018 RMK AO2 SLP223 T00940078 =

Support USWX by starting your Amazon purchase here.